N329PW KSFB-
Flight info
| Callsign | N329PW |
|---|---|
| Flight time | N/A |
| Altitude | VFR/015 |
| Route | SOUTH |
| Aircraft | RV10/L-DOV/C |
Departure
| Time | 2026-05-04 23:48 |
|---|---|
| Airport | Orlando Sanford International Airport (KSFB) |
Arrival
| Time | N/A |
|---|---|
| Airport | - |
| Time | Latitude | Longitude | Altitude | Speed | Heading |
|---|---|---|---|---|---|
| 2026-05-04 23:44 | 28.77781 | -81.24865 | 52 ft | 0 kts | 86° |
| 2026-05-04 23:45 | 28.77781 | -81.24864 | 52 ft | 1 kts | 87° |
| 2026-05-04 23:46 | 28.77775 | -81.24824 | 52 ft | 7 kts | 101° |
| 2026-05-04 23:46 | 28.77762 | -81.24757 | 52 ft | 9 kts | 104° |
| 2026-05-04 23:46 | 28.77754 | -81.24669 | 51 ft | 12 kts | 86° |
| 2026-05-04 23:46 | 28.77759 | -81.24565 | 50 ft | 14 kts | 88° |
| 2026-05-04 23:47 | 28.77810 | -81.24519 | 49 ft | 12 kts | 4° |
| 2026-05-04 23:47 | 28.77845 | -81.24425 | 49 ft | 32 kts | 87° |
| 2026-05-04 23:47 | 28.77853 | -81.23928 | 164 ft | 82 kts | 88° |
| 2026-05-04 23:47 | 28.77840 | -81.23302 | 626 ft | 80 kts | 89° |
| 2026-05-04 23:48 | 28.77839 | -81.22687 | 1112 ft | 74 kts | 84° |
| 2026-05-04 23:48 | 28.77859 | -81.22138 | 1331 ft | 75 kts | 86° |
| 2026-05-04 23:48 | 28.77889 | -81.21552 | 1414 ft | 74 kts | 86° |
| 2026-05-04 23:48 | 28.77917 | -81.20926 | 1418 ft | 83 kts | 86° |
| 2026-05-04 23:49 | 28.77941 | -81.20275 | 1482 ft | 82 kts | 87° |
| 2026-05-04 23:49 | 28.77955 | -81.19589 | 1475 ft | 90 kts | 89° |
| 2026-05-04 23:49 | 28.77937 | -81.18870 | 1489 ft | 95 kts | 92° |
| 2026-05-04 23:49 | 28.77904 | -81.18102 | 1512 ft | 97 kts | 91° |
| 2026-05-04 23:50 | 28.77895 | -81.17303 | 1449 ft | 106 kts | 87° |
| 2026-05-04 23:50 | 28.77939 | -81.16464 | 1455 ft | 107 kts | 83° |
| 2026-05-04 23:50 | 28.78090 | -81.15588 | 1386 ft | 114 kts | 68° |
| 2026-05-04 23:50 | 28.78309 | -81.14751 | 1397 ft | 111 kts | 91° |
| 2026-05-04 23:51 | 28.78013 | -81.13925 | 1395 ft | 112 kts | 117° |
| 2026-05-04 23:51 | 28.77595 | -81.13178 | 1390 ft | 111 kts | 118° |
| 2026-05-04 23:51 | 28.77163 | -81.12429 | 1674 ft | 115 kts | 117° |
| 2026-05-04 23:51 | 28.76750 | -81.11713 | 2194 ft | 103 kts | 117° |
| 2026-05-04 23:52 | 28.76367 | -81.11034 | 2431 ft | 99 kts | 117° |
| 2026-05-04 23:52 | 28.76008 | -81.10400 | 2473 ft | 94 kts | 117° |
| 2026-05-04 23:52 | 28.75655 | -81.09777 | 2485 ft | 94 kts | 117° |
| 2026-05-04 23:52 | 28.75293 | -81.09146 | 2488 ft | 97 kts | 118° |
| 2026-05-04 23:53 | 28.74920 | -81.08492 | 2490 ft | 99 kts | 117° |
| 2026-05-04 23:53 | 28.74536 | -81.07822 | 2485 ft | 102 kts | 118° |
| 2026-05-04 23:53 | 28.74145 | -81.07139 | 2488 ft | 104 kts | 118° |
| 2026-05-04 23:53 | 28.73703 | -81.06469 | 2486 ft | 106 kts | 123° |
| 2026-05-04 23:54 | 28.73177 | -81.05867 | 2482 ft | 107 kts | 129° |
| 2026-05-04 23:54 | 28.72637 | -81.05278 | 2483 ft | 108 kts | 129° |
| 2026-05-04 23:54 | 28.72082 | -81.04675 | 2483 ft | 109 kts | 130° |
| 2026-05-04 23:54 | 28.71536 | -81.04073 | 2487 ft | 109 kts | 130° |
| 2026-05-04 23:55 | 28.70984 | -81.03471 | 2489 ft | 110 kts | 130° |
| 2026-05-04 23:55 | 28.70435 | -81.02869 | 2487 ft | 110 kts | 130° |
| 2026-05-04 23:55 | 28.69312 | -81.01640 | 2486 ft | 111 kts | 130° |
| 2026-05-04 23:56 | 28.68753 | -81.01027 | 2484 ft | 111 kts | 130° |
| 2026-05-04 23:56 | 28.68196 | -81.00418 | 2486 ft | 111 kts | 130° |
| 2026-05-04 23:56 | 28.67639 | -80.99807 | 2486 ft | 111 kts | 129° |
| 2026-05-04 23:56 | 28.67083 | -80.99197 | 2487 ft | 111 kts | 130° |
| 2026-05-04 23:57 | 28.66446 | -80.98694 | 2479 ft | 116 kts | 156° |
| 2026-05-04 23:57 | 28.65671 | -80.98425 | 2486 ft | 116 kts | 155° |
| 2026-05-04 23:57 | 28.64892 | -80.98161 | 2496 ft | 116 kts | 160° |
| 2026-05-04 23:57 | 28.64025 | -80.97996 | 2697 ft | 132 kts | 163° |
| 2026-05-04 23:58 | 28.63098 | -80.97813 | 2946 ft | 138 kts | 163° |
| 2026-05-04 23:58 | 28.62134 | -80.97613 | 3190 ft | 143 kts | 163° |
| 2026-05-04 23:58 | 28.61148 | -80.97388 | 3435 ft | 146 kts | 163° |
| 2026-05-04 23:58 | 28.60153 | -80.97156 | 3791 ft | 139 kts | 163° |
| 2026-05-04 23:59 | 28.59284 | -80.96957 | 4366 ft | 118 kts | 163° |
| 2026-05-04 23:59 | 28.58535 | -80.96780 | 4840 ft | 107 kts | 162° |
| 2026-05-04 23:59 | 28.57847 | -80.96612 | 5278 ft | 97 kts | 163° |
| 2026-05-04 23:59 | 28.57144 | -80.96460 | 5458 ft | 108 kts | 168° |
| 2026-05-05 00:00 | 28.56419 | -80.96173 | 5495 ft | 115 kts | 137° |
| 2026-05-05 00:00 | 28.56081 | -80.95702 | 5499 ft | 121 kts | 115° |
| 2026-05-05 00:00 | 28.56160 | -80.94407 | 5500 ft | 133 kts | 59° |
| 2026-05-05 00:00 | 28.56921 | -80.93794 | 5501 ft | 141 kts | 13° |
| 2026-05-05 00:01 | 28.57890 | -80.93978 | 5500 ft | 147 kts | 328° |
| 2026-05-05 00:01 | 28.58485 | -80.94898 | 5499 ft | 149 kts | 282° |
| 2026-05-05 00:01 | 28.58340 | -80.96033 | 5498 ft | 148 kts | 236° |
| 2026-05-05 00:01 | 28.57538 | -80.96702 | 5499 ft | 146 kts | 191° |
| 2026-05-05 00:02 | 28.56565 | -80.96510 | 5498 ft | 145 kts | 146° |
| 2026-05-05 00:02 | 28.56021 | -80.95571 | 5498 ft | 146 kts | 100° |
| 2026-05-05 00:02 | 28.56256 | -80.94464 | 5495 ft | 150 kts | 54° |
| 2026-05-05 00:02 | 28.57141 | -80.93867 | 5496 ft | 153 kts | 8° |
| 2026-05-05 00:03 | 28.58160 | -80.94154 | 5496 ft | 155 kts | 323° |
| 2026-05-05 00:03 | 28.58714 | -80.95174 | 5497 ft | 154 kts | 278° |
| 2026-05-05 00:03 | 28.58483 | -80.96320 | 5497 ft | 151 kts | 232° |
| 2026-05-05 00:03 | 28.57612 | -80.96928 | 5496 ft | 148 kts | 186° |
| 2026-05-05 00:04 | 28.56624 | -80.96839 | 5518 ft | 131 kts | 170° |
| 2026-05-05 00:04 | 28.55846 | -80.96742 | 5553 ft | 92 kts | 170° |
| 2026-05-05 00:04 | 28.55306 | -80.96587 | 5398 ft | 77 kts | 136° |
| 2026-05-05 00:04 | 28.55045 | -80.95998 | 4661 ft | 124 kts | 83° |
| 2026-05-05 00:05 | 28.55662 | -80.95208 | 3899 ft | 146 kts | 36° |
| 2026-05-05 00:05 | 28.56059 | -80.94389 | 3853 ft | 108 kts | 71° |
| 2026-05-05 00:05 | 28.56169 | -80.93619 | 3638 ft | 91 kts | 91° |
| 2026-05-05 00:05 | 28.56236 | -80.92945 | 3372 ft | 83 kts | 95° |
| 2026-05-05 00:06 | 28.56067 | -80.92303 | 2996 ft | 87 kts | 88° |
| 2026-05-05 00:06 | 28.56511 | -80.92019 | 2604 ft | 110 kts | 338° |
| 2026-05-05 00:06 | 28.57075 | -80.92763 | 2461 ft | 137 kts | 311° |
| 2026-05-05 00:06 | 28.57736 | -80.93710 | 2469 ft | 164 kts | 313° |
| 2026-05-05 00:07 | 28.58328 | -80.94817 | 2742 ft | 166 kts | 282° |
| 2026-05-05 00:07 | 28.58163 | -80.96053 | 3061 ft | 160 kts | 248° |
| 2026-05-05 00:07 | 28.58075 | -80.97318 | 3312 ft | 163 kts | 282° |
| 2026-05-05 00:07 | 28.58657 | -80.98418 | 3483 ft | 165 kts | 313° |
| 2026-05-05 00:08 | 28.59332 | -80.99304 | 3850 ft | 140 kts | 266° |
| 2026-05-05 00:08 | 28.59137 | -80.99270 | 3863 ft | 116 kts | 22° |
| 2026-05-05 00:08 | 28.59652 | -80.98634 | 3851 ft | 120 kts | 100° |
| 2026-05-05 00:08 | 28.58935 | -80.98337 | 3963 ft | 135 kts | 202° |
| 2026-05-05 00:09 | 28.58844 | -80.99279 | 4045 ft | 141 kts | 321° |
| 2026-05-05 00:09 | 28.59592 | -80.99942 | 4016 ft | 154 kts | 273° |
| 2026-05-05 00:09 | 28.58917 | -81.00588 | 3972 ft | 147 kts | 158° |
| 2026-05-05 00:09 | 28.58647 | -80.99644 | 3738 ft | 146 kts | 61° |
| 2026-05-05 00:10 | 28.59097 | -80.98712 | 3763 ft | 127 kts | 58° |
| 2026-05-05 00:10 | 28.59586 | -80.97921 | 3590 ft | 127 kts | 56° |
| 2026-05-05 00:10 | 28.60068 | -80.97089 | 3318 ft | 120 kts | 65° |
| 2026-05-05 00:10 | 28.60457 | -80.96289 | 3067 ft | 112 kts | 60° |
| 2026-05-05 00:11 | 28.60868 | -80.95571 | 2817 ft | 106 kts | 60° |
| 2026-05-05 00:11 | 28.61258 | -80.94894 | 2566 ft | 100 kts | 57° |
| 2026-05-05 00:11 | 28.61867 | -80.94537 | 2323 ft | 103 kts | 16° |
| 2026-05-05 00:11 | 28.62579 | -80.94453 | 2076 ft | 101 kts | 14° |
| 2026-05-05 00:12 | 28.63279 | -80.94432 | 1833 ft | 103 kts | 0° |
| 2026-05-05 00:12 | 28.63973 | -80.94563 | 1591 ft | 105 kts | 346° |
| 2026-05-05 00:12 | 28.64555 | -80.95061 | 1485 ft | 101 kts | 321° |
| 2026-05-05 00:12 | 28.65029 | -80.95595 | 1464 ft | 89 kts | 323° |
| 2026-05-05 00:13 | 28.65457 | -80.96075 | 1476 ft | 87 kts | 322° |
| 2026-05-05 00:13 | 28.65925 | -80.96597 | 1489 ft | 100 kts | 321° |
| 2026-05-05 00:13 | 28.66454 | -80.97194 | 1493 ft | 112 kts | 320° |
| 2026-05-05 00:13 | 28.66827 | -80.98023 | 1495 ft | 126 kts | 290° |
| 2026-05-05 00:14 | 28.67105 | -80.98979 | 1483 ft | 127 kts | 290° |
| 2026-05-05 00:14 | 28.67381 | -80.99940 | 1475 ft | 127 kts | 290° |
| 2026-05-05 00:14 | 28.67660 | -81.00904 | 1478 ft | 127 kts | 290° |
| 2026-05-05 00:14 | 28.67936 | -81.01863 | 1479 ft | 126 kts | 290° |
| 2026-05-05 00:15 | 28.68210 | -81.02806 | 1479 ft | 126 kts | 290° |
| 2026-05-05 00:15 | 28.68489 | -81.03767 | 1478 ft | 127 kts | 290° |
| 2026-05-05 00:15 | 28.68769 | -81.04724 | 1480 ft | 127 kts | 290° |
| 2026-05-05 00:15 | 28.69048 | -81.05687 | 1473 ft | 127 kts | 290° |
| 2026-05-05 00:16 | 28.69324 | -81.06647 | 1476 ft | 128 kts | 288° |
| 2026-05-05 00:16 | 28.69531 | -81.07636 | 1475 ft | 128 kts | 284° |
| 2026-05-05 00:16 | 28.69734 | -81.08613 | 1478 ft | 128 kts | 284° |
| 2026-05-05 00:16 | 28.69912 | -81.09611 | 1477 ft | 128 kts | 279° |
| 2026-05-05 00:17 | 28.69983 | -81.10619 | 1477 ft | 128 kts | 273° |
| 2026-05-05 00:17 | 28.70034 | -81.11638 | 1474 ft | 128 kts | 273° |
| 2026-05-05 00:17 | 28.70081 | -81.12637 | 1476 ft | 127 kts | 273° |
| 2026-05-05 00:17 | 28.70134 | -81.13648 | 1477 ft | 128 kts | 274° |
| 2026-05-05 00:18 | 28.70185 | -81.14656 | 1478 ft | 128 kts | 273° |
| 2026-05-05 00:18 | 28.70237 | -81.15677 | 1476 ft | 128 kts | 273° |
| 2026-05-05 00:18 | 28.70287 | -81.16685 | 1470 ft | 128 kts | 272° |
| 2026-05-05 00:18 | 28.70339 | -81.17701 | 1473 ft | 128 kts | 273° |
| 2026-05-05 00:19 | 28.70391 | -81.18711 | 1472 ft | 128 kts | 273° |
| 2026-05-05 00:19 | 28.70443 | -81.19719 | 1478 ft | 128 kts | 273° |
| 2026-05-05 00:19 | 28.70495 | -81.20746 | 1474 ft | 129 kts | 272° |
| 2026-05-05 00:19 | 28.70773 | -81.21682 | 1469 ft | 125 kts | 315° |
| 2026-05-05 00:20 | 28.71359 | -81.22398 | 1469 ft | 123 kts | 316° |
| 2026-05-05 00:20 | 28.72023 | -81.22961 | 1468 ft | 118 kts | 334° |
| 2026-05-05 00:20 | 28.72749 | -81.23344 | 1468 ft | 113 kts | 349° |
| 2026-05-05 00:20 | 28.73427 | -81.23729 | 1381 ft | 95 kts | 359° |
| 2026-05-05 00:21 | 28.74037 | -81.23704 | 1172 ft | 89 kts | 17° |
| 2026-05-05 00:21 | 28.74645 | -81.23608 | 1046 ft | 78 kts | 17° |
| 2026-05-05 00:21 | 28.75125 | -81.23757 | 958 ft | 92 kts | 290° |
| 2026-05-05 00:21 | 28.75131 | -81.24479 | 896 ft | 93 kts | 257° |
| 2026-05-05 00:22 | 28.75114 | -81.25177 | 897 ft | 87 kts | 270° |
| 2026-05-05 00:22 | 28.75140 | -81.25883 | 893 ft | 85 kts | 291° |
| 2026-05-05 00:22 | 28.75533 | -81.26290 | 879 ft | 75 kts | 353° |
| 2026-05-05 00:22 | 28.76063 | -81.26465 | 799 ft | 81 kts | 353° |
| 2026-05-05 00:23 | 28.76564 | -81.26636 | 774 ft | 72 kts | 353° |
| 2026-05-05 00:23 | 28.77052 | -81.26751 | 691 ft | 71 kts | 1° |
| 2026-05-05 00:23 | 28.77530 | -81.26806 | 621 ft | 60 kts | 32° |
| 2026-05-05 00:23 | 28.77735 | -81.26468 | 549 ft | 52 kts | 75° |
| 2026-05-05 00:24 | 28.77815 | -81.26057 | 468 ft | 52 kts | 83° |
| 2026-05-05 00:24 | 28.77852 | -81.25633 | 371 ft | 52 kts | 88° |
| 2026-05-05 00:24 | 28.77856 | -81.25202 | 265 ft | 55 kts | 90° |
| 2026-05-05 00:24 | 28.77850 | -81.24764 | 149 ft | 54 kts | 89° |
| 2026-05-05 00:25 | 28.77846 | -81.24389 | 49 ft | 39 kts | 90° |
| 2026-05-05 00:25 | 28.77846 | -81.24136 | 46 ft | 18 kts | 86° |
| 2026-05-05 00:25 | 28.77807 | -81.24078 | 46 ft | 7 kts | 172° |
| 2026-05-05 00:25 | 28.77801 | -81.24077 | 46 ft | 2 kts | 172° |
| 2026-05-05 00:26 | 28.77785 | -81.24081 | 46 ft | 0 kts | 200° |
| 2026-05-05 00:26 | 28.77784 | -81.24081 | 46 ft | 1 kts | 210° |
| 2026-05-05 00:26 | 28.77771 | -81.24097 | 46 ft | 3 kts | 256° |
| 2026-05-05 00:27 | 28.77768 | -81.24120 | 46 ft | 4 kts | 272° |
| 2026-05-05 00:27 | 28.77771 | -81.24157 | 46 ft | 0 kts | 270° |
| 2026-05-05 00:27 | 28.77769 | -81.24197 | 47 ft | 8 kts | 265° |
| 2026-05-05 00:27 | 28.77768 | -81.24277 | 48 ft | 11 kts | 277° |
| 2026-05-05 00:28 | 28.77774 | -81.24371 | 49 ft | 12 kts | 270° |
| 2026-05-05 00:28 | 28.77773 | -81.24471 | 49 ft | 13 kts | 271° |
| 2026-05-05 00:28 | 28.77771 | -81.24559 | 50 ft | 11 kts | 252° |
| 2026-05-05 00:28 | 28.77767 | -81.24638 | 51 ft | 9 kts | 267° |
| 2026-05-05 00:29 | 28.77765 | -81.24716 | 52 ft | 9 kts | 274° |
| 2026-05-05 00:29 | 28.77762 | -81.24792 | 52 ft | 4 kts | 245° |
| 2026-05-05 00:29 | 28.77761 | -81.24795 | 52 ft | 1 kts | 234° |
| 2026-05-05 00:29 | 28.77756 | -81.24816 | 52 ft | 0 kts | 293° |